sensor_id;sensor_type;location;lat;lon;timestamp;P1;durP1;ratioP1;P2;durP2;ratioP2
71108;SDS011;59614;51.012;-1.648;2022-07-23T00:00:07;13.02;;;5.15;;
71108;SDS011;59614;51.012;-1.648;2022-07-23T00:02:33;7.80;;;4.43;;
71108;SDS011;59614;51.012;-1.648;2022-07-23T00:04:59;7.97;;;4.75;;
71108;SDS011;59614;51.012;-1.648;2022-07-23T00:07:24;13.60;;;4.90;;
71108;SDS011;59614;51.012;-1.648;2022-07-23T00:09:50;11.40;;;5.20;;
71108;SDS011;59614;51.012;-1.648;2022-07-23T00:12:15;14.48;;;5.65;;
71108;SDS011;59614;51.012;-1.648;2022-07-23T00:14:41;9.55;;;4.90;;
71108;SDS011;59614;51.012;-1.648;2022-07-23T00:17:06;12.77;;;4.80;;
71108;SDS011;59614;51.012;-1.648;2022-07-23T00:19:32;10.00;;;4.72;;
71108;SDS011;59614;51.012;-1.648;2022-07-23T00:21:57;11.02;;;4.30;;
71108;SDS011;59614;51.012;-1.648;2022-07-23T00:24:23;9.10;;;4.82;;
71108;SDS011;59614;51.012;-1.648;2022-07-23T00:26:48;13.00;;;4.63;;
71108;SDS011;59614;51.012;-1.648;2022-07-23T00:29:14;8.57;;;4.13;;
71108;SDS011;59614;51.012;-1.648;2022-07-23T00:31:39;10.98;;;3.97;;
71108;SDS011;59614;51.012;-1.648;2022-07-23T00:34:05;8.98;;;4.70;;
71108;SDS011;59614;51.012;-1.648;2022-07-23T00:36:30;8.90;;;4.38;;
71108;SDS011;59614;51.012;-1.648;2022-07-23T00:38:56;12.23;;;4.47;;
71108;SDS011;59614;51.012;-1.648;2022-07-23T00:41:22;11.07;;;4.00;;
71108;SDS011;59614;51.012;-1.648;2022-07-23T00:43:48;11.73;;;4.75;;
71108;SDS011;59614;51.012;-1.648;2022-07-23T00:46:18;12.80;;;4.85;;
71108;SDS011;59614;51.012;-1.648;2022-07-23T00:48:45;9.75;;;4.28;;
71108;SDS011;59614;51.012;-1.648;2022-07-23T00:51:10;10.52;;;4.07;;
71108;SDS011;59614;51.012;-1.648;2022-07-23T00:53:36;12.15;;;4.30;;
71108;SDS011;59614;51.012;-1.648;2022-07-23T00:56:01;9.27;;;4.57;;
71108;SDS011;59614;51.012;-1.648;2022-07-23T00:58:27;13.15;;;4.70;;
71108;SDS011;59614;51.012;-1.648;2022-07-23T01:00:53;9.00;;;4.07;;
71108;SDS011;59614;51.012;-1.648;2022-07-23T01:03:18;11.23;;;4.50;;
71108;SDS011;59614;51.012;-1.648;2022-07-23T01:05:44;7.55;;;3.75;;
71108;SDS011;59614;51.012;-1.648;2022-07-23T01:08:10;10.35;;;4.10;;
71108;SDS011;59614;51.012;-1.648;2022-07-23T01:10:36;7.97;;;4.30;;
71108;SDS011;59614;51.012;-1.648;2022-07-23T01:13:05;15.68;;;4.82;;
71108;SDS011;59614;51.012;-1.648;2022-07-23T01:15:33;13.93;;;4.53;;
71108;SDS011;59614;51.012;-1.648;2022-07-23T01:17:59;11.27;;;4.47;;
71108;SDS011;59614;51.012;-1.648;2022-07-23T01:20:25;12.43;;;5.03;;
71108;SDS011;59614;51.012;-1.648;2022-07-23T01:22:51;11.20;;;4.25;;
71108;SDS011;59614;51.012;-1.648;2022-07-23T01:25:18;11.60;;;4.47;;
71108;SDS011;59614;51.012;-1.648;2022-07-23T01:27:44;12.90;;;4.40;;
71108;SDS011;59614;51.012;-1.648;2022-07-23T01:30:10;10.30;;;4.00;;
71108;SDS011;59614;51.012;-1.648;2022-07-23T01:32:36;9.32;;;4.07;;
71108;SDS011;59614;51.012;-1.648;2022-07-23T01:35:02;13.75;;;4.75;;
71108;SDS011;59614;51.012;-1.648;2022-07-23T01:37:27;13.20;;;4.43;;
71108;SDS011;59614;51.012;-1.648;2022-07-23T01:39:53;11.15;;;4.75;;
71108;SDS011;59614;51.012;-1.648;2022-07-23T01:42:18;7.15;;;4.05;;
71108;SDS011;59614;51.012;-1.648;2022-07-23T01:44:44;9.02;;;4.10;;
71108;SDS011;59614;51.012;-1.648;2022-07-23T01:47:09;6.70;;;4.55;;
71108;SDS011;59614;51.012;-1.648;2022-07-23T01:49:35;9.95;;;4.43;;
71108;SDS011;59614;51.012;-1.648;2022-07-23T01:52:00;8.63;;;4.00;;
71108;SDS011;59614;51.012;-1.648;2022-07-23T01:54:30;13.20;;;4.22;;
71108;SDS011;59614;51.012;-1.648;2022-07-23T01:56:57;11.88;;;4.10;;
71108;SDS011;59614;51.012;-1.648;2022-07-23T01:59:23;8.88;;;4.30;;
71108;SDS011;59614;51.012;-1.648;2022-07-23T02:01:48;16.08;;;5.50;;
71108;SDS011;59614;51.012;-1.648;2022-07-23T02:04:16;7.57;;;4.40;;
71108;SDS011;59614;51.012;-1.648;2022-07-23T02:06:42;7.07;;;4.20;;
71108;SDS011;59614;51.012;-1.648;2022-07-23T02:09:07;10.20;;;4.53;;
71108;SDS011;59614;51.012;-1.648;2022-07-23T02:11:33;11.18;;;4.70;;
71108;SDS011;59614;51.012;-1.648;2022-07-23T02:13:58;11.73;;;4.22;;
71108;SDS011;59614;51.012;-1.648;2022-07-23T02:16:24;8.30;;;4.40;;
71108;SDS011;59614;51.012;-1.648;2022-07-23T02:18:49;12.25;;;4.78;;
71108;SDS011;59614;51.012;-1.648;2022-07-23T02:21:15;7.90;;;4.00;;
71108;SDS011;59614;51.012;-1.648;2022-07-23T02:23:40;10.18;;;4.40;;
71108;SDS011;59614;51.012;-1.648;2022-07-23T02:26:06;9.63;;;5.00;;
71108;SDS011;59614;51.012;-1.648;2022-07-23T02:28:31;8.93;;;4.30;;
71108;SDS011;59614;51.012;-1.648;2022-07-23T02:30:56;6.18;;;4.35;;
71108;SDS011;59614;51.012;-1.648;2022-07-23T02:33:22;10.80;;;4.72;;
71108;SDS011;59614;51.012;-1.648;2022-07-23T02:35:48;10.90;;;4.78;;
71108;SDS011;59614;51.012;-1.648;2022-07-23T02:38:14;8.50;;;4.10;;
71108;SDS011;59614;51.012;-1.648;2022-07-23T02:40:39;13.38;;;5.03;;
71108;SDS011;59614;51.012;-1.648;2022-07-23T02:43:05;10.48;;;4.35;;
71108;SDS011;59614;51.012;-1.648;2022-07-23T02:45:30;10.07;;;4.90;;
71108;SDS011;59614;51.012;-1.648;2022-07-23T02:47:55;9.98;;;4.80;;
71108;SDS011;59614;51.012;-1.648;2022-07-23T02:50:21;10.65;;;4.90;;
71108;SDS011;59614;51.012;-1.648;2022-07-23T02:52:46;8.45;;;4.55;;
71108;SDS011;59614;51.012;-1.648;2022-07-23T02:55:12;11.57;;;4.28;;
71108;SDS011;59614;51.012;-1.648;2022-07-23T02:57:37;9.55;;;4.15;;
71108;SDS011;59614;51.012;-1.648;2022-07-23T03:00:03;9.02;;;4.60;;
71108;SDS011;59614;51.012;-1.648;2022-07-23T03:02:30;8.47;;;4.90;;
71108;SDS011;59614;51.012;-1.648;2022-07-23T03:04:56;7.45;;;4.03;;
71108;SDS011;59614;51.012;-1.648;2022-07-23T03:07:21;7.72;;;4.18;;
71108;SDS011;59614;51.012;-1.648;2022-07-23T03:09:47;8.13;;;4.90;;
71108;SDS011;59614;51.012;-1.648;2022-07-23T03:12:12;7.78;;;4.80;;
71108;SDS011;59614;51.012;-1.648;2022-07-23T03:14:38;11.43;;;5.00;;
71108;SDS011;59614;51.012;-1.648;2022-07-23T03:17:04;12.13;;;4.68;;
71108;SDS011;59614;51.012;-1.648;2022-07-23T03:19:29;11.80;;;4.45;;
71108;SDS011;59614;51.012;-1.648;2022-07-23T03:21:55;11.45;;;4.50;;
71108;SDS011;59614;51.012;-1.648;2022-07-23T03:24:20;10.60;;;4.70;;
71108;SDS011;59614;51.012;-1.648;2022-07-23T03:26:48;9.30;;;4.38;;
71108;SDS011;59614;51.012;-1.648;2022-07-23T03:29:14;7.80;;;4.45;;
71108;SDS011;59614;51.012;-1.648;2022-07-23T03:31:39;11.23;;;4.45;;
71108;SDS011;59614;51.012;-1.648;2022-07-23T03:34:05;9.25;;;4.65;;
71108;SDS011;59614;51.012;-1.648;2022-07-23T03:36:30;8.55;;;4.30;;
71108;SDS011;59614;51.012;-1.648;2022-07-23T03:38:55;8.35;;;4.60;;
71108;SDS011;59614;51.012;-1.648;2022-07-23T03:41:21;11.73;;;4.35;;
71108;SDS011;59614;51.012;-1.648;2022-07-23T03:43:47;10.00;;;4.50;;
71108;SDS011;59614;51.012;-1.648;2022-07-23T03:46:12;8.57;;;4.45;;
71108;SDS011;59614;51.012;-1.648;2022-07-23T03:48:39;10.68;;;4.40;;
71108;SDS011;59614;51.012;-1.648;2022-07-23T03:51:04;8.45;;;4.40;;
71108;SDS011;59614;51.012;-1.648;2022-07-23T03:53:30;10.30;;;4.07;;
71108;SDS011;59614;51.012;-1.648;2022-07-23T03:55:56;6.25;;;4.25;;
71108;SDS011;59614;51.012;-1.648;2022-07-23T03:58:21;7.50;;;4.45;;
71108;SDS011;59614;51.012;-1.648;2022-07-23T04:00:47;8.60;;;4.05;;
71108;SDS011;59614;51.012;-1.648;2022-07-23T04:03:12;9.52;;;4.28;;
71108;SDS011;59614;51.012;-1.648;2022-07-23T04:05:37;7.30;;;4.32;;
71108;SDS011;59614;51.012;-1.648;2022-07-23T04:08:03;7.47;;;4.43;;
71108;SDS011;59614;51.012;-1.648;2022-07-23T04:10:28;9.80;;;4.45;;
71108;SDS011;59614;51.012;-1.648;2022-07-23T04:12:54;6.22;;;3.92;;
71108;SDS011;59614;51.012;-1.648;2022-07-23T04:15:19;6.32;;;4.00;;
71108;SDS011;59614;51.012;-1.648;2022-07-23T04:17:45;10.60;;;4.30;;
71108;SDS011;59614;51.012;-1.648;2022-07-23T04:20:11;8.93;;;4.07;;
71108;SDS011;59614;51.012;-1.648;2022-07-23T04:22:37;10.20;;;4.78;;
71108;SDS011;59614;51.012;-1.648;2022-07-23T04:25:03;7.10;;;4.15;;
71108;SDS011;59614;51.012;-1.648;2022-07-23T04:27:29;13.40;;;4.43;;
71108;SDS011;59614;51.012;-1.648;2022-07-23T04:29:54;12.32;;;4.50;;
71108;SDS011;59614;51.012;-1.648;2022-07-23T04:32:20;11.15;;;4.45;;
71108;SDS011;59614;51.012;-1.648;2022-07-23T04:34:45;11.60;;;4.65;;
71108;SDS011;59614;51.012;-1.648;2022-07-23T04:37:11;7.50;;;4.35;;
71108;SDS011;59614;51.012;-1.648;2022-07-23T04:39:36;8.13;;;3.90;;
71108;SDS011;59614;51.012;-1.648;2022-07-23T04:42:01;8.25;;;4.20;;
71108;SDS011;59614;51.012;-1.648;2022-07-23T04:44:27;7.93;;;4.35;;
71108;SDS011;59614;51.012;-1.648;2022-07-23T04:46:52;12.43;;;4.78;;
71108;SDS011;59614;51.012;-1.648;2022-07-23T04:49:18;11.02;;;4.72;;
71108;SDS011;59614;51.012;-1.648;2022-07-23T04:51:43;17.70;;;4.60;;
71108;SDS011;59614;51.012;-1.648;2022-07-23T04:54:09;9.15;;;4.38;;
71108;SDS011;59614;51.012;-1.648;2022-07-23T04:56:34;15.27;;;4.70;;
71108;SDS011;59614;51.012;-1.648;2022-07-23T04:59:00;10.50;;;5.18;;
71108;SDS011;59614;51.012;-1.648;2022-07-23T05:01:25;8.57;;;4.72;;
71108;SDS011;59614;51.012;-1.648;2022-07-23T05:03:50;11.88;;;4.78;;
71108;SDS011;59614;51.012;-1.648;2022-07-23T05:06:16;11.48;;;4.72;;
71108;SDS011;59614;51.012;-1.648;2022-07-23T05:08:42;9.30;;;4.60;;
71108;SDS011;59614;51.012;-1.648;2022-07-23T05:11:07;8.55;;;4.30;;
71108;SDS011;59614;51.012;-1.648;2022-07-23T05:13:32;14.77;;;5.07;;
71108;SDS011;59614;51.012;-1.648;2022-07-23T05:15:58;10.82;;;4.93;;
71108;SDS011;59614;51.012;-1.648;2022-07-23T05:18:23;8.90;;;4.25;;
71108;SDS011;59614;51.012;-1.648;2022-07-23T05:20:49;9.30;;;4.45;;
71108;SDS011;59614;51.012;-1.648;2022-07-23T05:23:14;10.55;;;4.13;;
71108;SDS011;59614;51.012;-1.648;2022-07-23T05:25:40;9.32;;;4.50;;
71108;SDS011;59614;51.012;-1.648;2022-07-23T05:28:05;7.32;;;4.85;;
71108;SDS011;59614;51.012;-1.648;2022-07-23T05:30:31;13.27;;;4.90;;
71108;SDS011;59614;51.012;-1.648;2022-07-23T05:32:56;10.93;;;4.50;;
71108;SDS011;59614;51.012;-1.648;2022-07-23T05:35:21;14.43;;;4.65;;
71108;SDS011;59614;51.012;-1.648;2022-07-23T05:37:47;8.93;;;5.13;;
71108;SDS011;59614;51.012;-1.648;2022-07-23T05:40:13;12.95;;;5.63;;
71108;SDS011;59614;51.012;-1.648;2022-07-23T05:42:39;9.23;;;4.90;;
71108;SDS011;59614;51.012;-1.648;2022-07-23T05:45:06;11.00;;;5.22;;
71108;SDS011;59614;51.012;-1.648;2022-07-23T05:47:39;9.85;;;4.82;;
71108;SDS011;59614;51.012;-1.648;2022-07-23T05:50:08;10.73;;;5.15;;
71108;SDS011;59614;51.012;-1.648;2022-07-23T05:52:34;15.75;;;4.80;;
71108;SDS011;59614;51.012;-1.648;2022-07-23T05:55:00;10.15;;;4.50;;
71108;SDS011;59614;51.012;-1.648;2022-07-23T05:57:25;11.35;;;4.93;;
71108;SDS011;59614;51.012;-1.648;2022-07-23T05:59:51;13.18;;;5.50;;
71108;SDS011;59614;51.012;-1.648;2022-07-23T06:02:16;10.80;;;5.78;;
71108;SDS011;59614;51.012;-1.648;2022-07-23T06:04:42;18.23;;;5.80;;
71108;SDS011;59614;51.012;-1.648;2022-07-23T06:07:07;10.30;;;4.80;;
71108;SDS011;59614;51.012;-1.648;2022-07-23T06:09:33;13.38;;;5.97;;
71108;SDS011;59614;51.012;-1.648;2022-07-23T06:11:58;12.18;;;5.30;;
71108;SDS011;59614;51.012;-1.648;2022-07-23T06:14:24;13.95;;;5.25;;
71108;SDS011;59614;51.012;-1.648;2022-07-23T06:16:49;12.70;;;5.63;;
71108;SDS011;59614;51.012;-1.648;2022-07-23T06:19:15;8.60;;;5.13;;
71108;SDS011;59614;51.012;-1.648;2022-07-23T06:21:40;9.20;;;4.50;;
71108;SDS011;59614;51.012;-1.648;2022-07-23T06:24:06;7.78;;;4.25;;
71108;SDS011;59614;51.012;-1.648;2022-07-23T06:26:31;8.52;;;4.57;;
71108;SDS011;59614;51.012;-1.648;2022-07-23T06:28:57;16.45;;;5.03;;
71108;SDS011;59614;51.012;-1.648;2022-07-23T06:31:22;9.10;;;5.07;;
71108;SDS011;59614;51.012;-1.648;2022-07-23T06:33:47;12.70;;;4.28;;
71108;SDS011;59614;51.012;-1.648;2022-07-23T06:36:13;10.65;;;4.80;;
71108;SDS011;59614;51.012;-1.648;2022-07-23T06:38:38;13.80;;;5.68;;
71108;SDS011;59614;51.012;-1.648;2022-07-23T06:41:04;13.90;;;5.03;;
71108;SDS011;59614;51.012;-1.648;2022-07-23T06:43:30;10.30;;;4.28;;
71108;SDS011;59614;51.012;-1.648;2022-07-23T06:45:56;14.35;;;4.47;;
71108;SDS011;59614;51.012;-1.648;2022-07-23T06:48:21;18.23;;;5.43;;
71108;SDS011;59614;51.012;-1.648;2022-07-23T06:50:47;12.05;;;4.50;;
71108;SDS011;59614;51.012;-1.648;2022-07-23T06:53:13;12.98;;;4.97;;
71108;SDS011;59614;51.012;-1.648;2022-07-23T06:55:38;10.35;;;4.55;;
71108;SDS011;59614;51.012;-1.648;2022-07-23T06:58:05;12.70;;;5.25;;
71108;SDS011;59614;51.012;-1.648;2022-07-23T07:00:31;11.45;;;4.38;;
71108;SDS011;59614;51.012;-1.648;2022-07-23T07:02:57;9.32;;;4.22;;
71108;SDS011;59614;51.012;-1.648;2022-07-23T07:05:23;10.55;;;4.32;;
71108;SDS011;59614;51.012;-1.648;2022-07-23T07:07:52;9.02;;;3.88;;
71108;SDS011;59614;51.012;-1.648;2022-07-23T07:10:18;9.27;;;3.60;;
71108;SDS011;59614;51.012;-1.648;2022-07-23T07:12:44;10.18;;;4.25;;
71108;SDS011;59614;51.012;-1.648;2022-07-23T07:15:10;9.68;;;3.90;;
71108;SDS011;59614;51.012;-1.648;2022-07-23T07:17:36;12.27;;;4.50;;
71108;SDS011;59614;51.012;-1.648;2022-07-23T07:20:02;7.45;;;3.55;;
71108;SDS011;59614;51.012;-1.648;2022-07-23T07:22:28;12.55;;;4.68;;
71108;SDS011;59614;51.012;-1.648;2022-07-23T07:24:53;11.15;;;3.70;;
71108;SDS011;59614;51.012;-1.648;2022-07-23T07:27:19;10.80;;;4.53;;
71108;SDS011;59614;51.012;-1.648;2022-07-23T07:29:44;12.27;;;3.90;;
71108;SDS011;59614;51.012;-1.648;2022-07-23T07:32:10;11.07;;;4.50;;
71108;SDS011;59614;51.012;-1.648;2022-07-23T07:34:35;8.70;;;3.78;;
71108;SDS011;59614;51.012;-1.648;2022-07-23T07:37:01;14.63;;;4.70;;
71108;SDS011;59614;51.012;-1.648;2022-07-23T07:39:26;7.22;;;3.70;;
71108;SDS011;59614;51.012;-1.648;2022-07-23T07:41:51;7.38;;;4.05;;
71108;SDS011;59614;51.012;-1.648;2022-07-23T07:44:17;6.53;;;3.72;;
71108;SDS011;59614;51.012;-1.648;2022-07-23T07:46:42;5.68;;;3.38;;
71108;SDS011;59614;51.012;-1.648;2022-07-23T07:49:08;10.57;;;3.22;;
71108;SDS011;59614;51.012;-1.648;2022-07-23T07:51:33;7.20;;;3.28;;
71108;SDS011;59614;51.012;-1.648;2022-07-23T07:53:59;6.18;;;3.33;;
71108;SDS011;59614;51.012;-1.648;2022-07-23T07:56:25;9.23;;;3.72;;
71108;SDS011;59614;51.012;-1.648;2022-07-23T07:58:51;8.07;;;3.33;;
71108;SDS011;59614;51.012;-1.648;2022-07-23T08:01:16;7.93;;;3.40;;
71108;SDS011;59614;51.012;-1.648;2022-07-23T08:03:42;13.13;;;3.53;;
71108;SDS011;59614;51.012;-1.648;2022-07-23T08:06:07;5.32;;;3.28;;
71108;SDS011;59614;51.012;-1.648;2022-07-23T08:08:33;5.90;;;2.95;;
71108;SDS011;59614;51.012;-1.648;2022-07-23T08:10:58;6.03;;;2.88;;
71108;SDS011;59614;51.012;-1.648;2022-07-23T08:13:24;6.40;;;3.03;;
71108;SDS011;59614;51.012;-1.648;2022-07-23T08:15:49;7.63;;;3.20;;
71108;SDS011;59614;51.012;-1.648;2022-07-23T08:18:14;7.28;;;3.38;;
71108;SDS011;59614;51.012;-1.648;2022-07-23T08:20:40;7.60;;;3.42;;
71108;SDS011;59614;51.012;-1.648;2022-07-23T08:23:07;9.15;;;2.90;;
71108;SDS011;59614;51.012;-1.648;2022-07-23T08:25:35;7.75;;;3.10;;
71108;SDS011;59614;51.012;-1.648;2022-07-23T08:28:09;5.55;;;2.90;;
71108;SDS011;59614;51.012;-1.648;2022-07-23T08:30:35;7.90;;;2.50;;
71108;SDS011;59614;51.012;-1.648;2022-07-23T08:33:09;7.67;;;2.40;;
71108;SDS011;59614;51.012;-1.648;2022-07-23T08:35:38;8.73;;;3.17;;
71108;SDS011;59614;51.012;-1.648;2022-07-23T08:38:09;4.20;;;2.60;;
71108;SDS011;59614;51.012;-1.648;2022-07-23T08:40:37;9.45;;;2.80;;
71108;SDS011;59614;51.012;-1.648;2022-07-23T08:45:30;4.38;;;2.00;;
71108;SDS011;59614;51.012;-1.648;2022-07-23T08:48:01;5.45;;;2.20;;
71108;SDS011;59614;51.012;-1.648;2022-07-23T08:50:28;5.20;;;2.30;;
71108;SDS011;59614;51.012;-1.648;2022-07-23T08:52:54;4.60;;;2.20;;
71108;SDS011;59614;51.012;-1.648;2022-07-23T08:57:51;6.10;;;2.10;;
71108;SDS011;59614;51.012;-1.648;2022-07-23T09:00:18;7.32;;;2.08;;
71108;SDS011;59614;51.012;-1.648;2022-07-23T09:02:46;3.97;;;1.88;;
71108;SDS011;59614;51.012;-1.648;2022-07-23T09:05:12;4.03;;;1.85;;
71108;SDS011;59614;51.012;-1.648;2022-07-23T09:13:23;5.47;;;1.88;;
71108;SDS011;59614;51.012;-1.648;2022-07-23T09:15:52;5.28;;;2.25;;
71108;SDS011;59614;51.012;-1.648;2022-07-23T09:18:19;6.15;;;2.00;;
71108;SDS011;59614;51.012;-1.648;2022-07-23T09:21:04;5.22;;;2.20;;
71108;SDS011;59614;51.012;-1.648;2022-07-23T09:29:20;6.15;;;1.85;;
71108;SDS011;59614;51.012;-1.648;2022-07-23T09:31:59;5.15;;;1.80;;
71108;SDS011;59614;51.012;-1.648;2022-07-23T09:34:30;3.58;;;1.80;;
71108;SDS011;59614;51.012;-1.648;2022-07-23T09:39:35;4.60;;;2.03;;
71108;SDS011;59614;51.012;-1.648;2022-07-23T09:44:41;2.50;;;1.60;;
71108;SDS011;59614;51.012;-1.648;2022-07-23T09:47:10;3.40;;;1.90;;
71108;SDS011;59614;51.012;-1.648;2022-07-23T09:49:36;5.40;;;1.90;;
71108;SDS011;59614;51.012;-1.648;2022-07-23T09:52:01;4.45;;;1.85;;
71108;SDS011;59614;51.012;-1.648;2022-07-23T09:54:29;3.35;;;1.80;;
71108;SDS011;59614;51.012;-1.648;2022-07-23T09:56:57;4.03;;;1.70;;
71108;SDS011;59614;51.012;-1.648;2022-07-23T10:01:52;6.95;;;1.80;;
71108;SDS011;59614;51.012;-1.648;2022-07-23T10:04:19;4.13;;;1.70;;
71108;SDS011;59614;51.012;-1.648;2022-07-23T10:06:46;3.63;;;1.98;;
71108;SDS011;59614;51.012;-1.648;2022-07-23T10:09:12;2.13;;;1.60;;
71108;SDS011;59614;51.012;-1.648;2022-07-23T10:11:45;3.15;;;1.67;;
71108;SDS011;59614;51.012;-1.648;2022-07-23T10:14:12;4.10;;;1.80;;
71108;SDS011;59614;51.012;-1.648;2022-07-23T10:16:38;3.38;;;1.80;;
71108;SDS011;59614;51.012;-1.648;2022-07-23T10:19:04;3.17;;;1.70;;
71108;SDS011;59614;51.012;-1.648;2022-07-23T10:21:46;4.13;;;1.90;;
71108;SDS011;59614;51.012;-1.648;2022-07-23T10:35:33;3.28;;;1.83;;
71108;SDS011;59614;51.012;-1.648;2022-07-23T10:38:30;3.47;;;1.80;;
71108;SDS011;59614;51.012;-1.648;2022-07-23T10:40:55;2.58;;;1.80;;
71108;SDS011;59614;51.012;-1.648;2022-07-23T10:43:21;2.53;;;1.75;;
71108;SDS011;59614;51.012;-1.648;2022-07-23T10:45:47;2.90;;;1.80;;
71108;SDS011;59614;51.012;-1.648;2022-07-23T10:48:14;3.03;;;1.77;;
71108;SDS011;59614;51.012;-1.648;2022-07-23T10:50:42;6.03;;;2.00;;
71108;SDS011;59614;51.012;-1.648;2022-07-23T10:53:10;4.10;;;1.95;;
71108;SDS011;59614;51.012;-1.648;2022-07-23T10:55:44;2.47;;;1.70;;
71108;SDS011;59614;51.012;-1.648;2022-07-23T10:58:10;4.75;;;1.73;;
71108;SDS011;59614;51.012;-1.648;2022-07-23T11:00:36;2.88;;;1.98;;
71108;SDS011;59614;51.012;-1.648;2022-07-23T11:03:28;3.88;;;1.90;;
71108;SDS011;59614;51.012;-1.648;2022-07-23T11:05:53;2.60;;;1.77;;
71108;SDS011;59614;51.012;-1.648;2022-07-23T11:08:19;2.17;;;1.60;;
71108;SDS011;59614;51.012;-1.648;2022-07-23T11:19:03;6.13;;;2.20;;
71108;SDS011;59614;51.012;-1.648;2022-07-23T11:26:49;3.78;;;1.95;;
71108;SDS011;59614;51.012;-1.648;2022-07-23T11:34:42;4.47;;;1.90;;
71108;SDS011;59614;51.012;-1.648;2022-07-23T11:37:09;4.05;;;1.88;;
71108;SDS011;59614;51.012;-1.648;2022-07-23T11:39:36;5.05;;;1.92;;
71108;SDS011;59614;51.012;-1.648;2022-07-23T11:42:03;6.15;;;2.03;;
71108;SDS011;59614;51.012;-1.648;2022-07-23T11:44:31;2.97;;;1.73;;
71108;SDS011;59614;51.012;-1.648;2022-07-23T11:47:03;6.45;;;1.92;;
71108;SDS011;59614;51.012;-1.648;2022-07-23T11:49:30;4.25;;;1.90;;
71108;SDS011;59614;51.012;-1.648;2022-07-23T11:52:10;3.78;;;1.90;;
71108;SDS011;59614;51.012;-1.648;2022-07-23T11:54:52;3.03;;;1.77;;
71108;SDS011;59614;51.012;-1.648;2022-07-23T11:57:21;3.55;;;1.90;;
71108;SDS011;59614;51.012;-1.648;2022-07-23T11:59:51;3.60;;;1.90;;
71108;SDS011;59614;51.012;-1.648;2022-07-23T12:02:20;2.75;;;1.83;;
71108;SDS011;59614;51.012;-1.648;2022-07-23T12:04:48;2.47;;;1.88;;
71108;SDS011;59614;51.012;-1.648;2022-07-23T12:09:50;3.38;;;1.80;;
71108;SDS011;59614;51.012;-1.648;2022-07-23T12:12:16;2.33;;;1.63;;
71108;SDS011;59614;51.012;-1.648;2022-07-23T12:14:52;6.03;;;1.77;;
71108;SDS011;59614;51.012;-1.648;2022-07-23T12:17:26;3.90;;;1.90;;
71108;SDS011;59614;51.012;-1.648;2022-07-23T12:19:53;4.10;;;1.90;;
71108;SDS011;59614;51.012;-1.648;2022-07-23T12:22:19;2.78;;;1.88;;
71108;SDS011;59614;51.012;-1.648;2022-07-23T12:25:00;3.28;;;1.80;;
71108;SDS011;59614;51.012;-1.648;2022-07-23T12:27:28;3.30;;;1.88;;
71108;SDS011;59614;51.012;-1.648;2022-07-23T12:29:53;4.25;;;2.00;;
71108;SDS011;59614;51.012;-1.648;2022-07-23T12:32:20;3.85;;;1.80;;
71108;SDS011;59614;51.012;-1.648;2022-07-23T12:35:01;3.47;;;1.90;;
71108;SDS011;59614;51.012;-1.648;2022-07-23T12:37:35;3.20;;;1.95;;
71108;SDS011;59614;51.012;-1.648;2022-07-23T12:40:18;3.83;;;1.85;;
71108;SDS011;59614;51.012;-1.648;2022-07-23T12:43:07;3.13;;;1.90;;
71108;SDS011;59614;51.012;-1.648;2022-07-23T12:45:51;4.30;;;2.03;;
71108;SDS011;59614;51.012;-1.648;2022-07-23T12:48:17;2.55;;;1.70;;
71108;SDS011;59614;51.012;-1.648;2022-07-23T12:51:00;3.30;;;2.00;;
71108;SDS011;59614;51.012;-1.648;2022-07-23T12:53:30;3.97;;;2.00;;
71108;SDS011;59614;51.012;-1.648;2022-07-23T12:56:19;4.03;;;1.80;;
71108;SDS011;59614;51.012;-1.648;2022-07-23T12:58:47;6.20;;;1.85;;
71108;SDS011;59614;51.012;-1.648;2022-07-23T13:06:38;5.68;;;2.20;;
71108;SDS011;59614;51.012;-1.648;2022-07-23T13:09:08;4.32;;;2.00;;
71108;SDS011;59614;51.012;-1.648;2022-07-23T13:11:35;3.47;;;1.83;;
71108;SDS011;59614;51.012;-1.648;2022-07-23T13:14:01;3.20;;;2.00;;
71108;SDS011;59614;51.012;-1.648;2022-07-23T13:16:27;4.95;;;2.00;;
71108;SDS011;59614;51.012;-1.648;2022-07-23T13:18:54;4.78;;;2.20;;
71108;SDS011;59614;51.012;-1.648;2022-07-23T13:21:21;3.75;;;2.00;;
71108;SDS011;59614;51.012;-1.648;2022-07-23T13:23:47;4.75;;;2.20;;
71108;SDS011;59614;51.012;-1.648;2022-07-23T13:26:13;3.78;;;2.00;;
71108;SDS011;59614;51.012;-1.648;2022-07-23T13:28:39;5.40;;;2.03;;
71108;SDS011;59614;51.012;-1.648;2022-07-23T13:31:04;3.60;;;2.00;;
71108;SDS011;59614;51.012;-1.648;2022-07-23T13:33:30;5.10;;;2.00;;
71108;SDS011;59614;51.012;-1.648;2022-07-23T13:35:55;3.83;;;2.10;;
71108;SDS011;59614;51.012;-1.648;2022-07-23T13:38:21;3.78;;;1.90;;
71108;SDS011;59614;51.012;-1.648;2022-07-23T13:40:48;2.78;;;1.70;;
71108;SDS011;59614;51.012;-1.648;2022-07-23T13:43:16;4.97;;;2.20;;
71108;SDS011;59614;51.012;-1.648;2022-07-23T13:45:45;4.78;;;2.10;;
71108;SDS011;59614;51.012;-1.648;2022-07-23T13:48:11;3.33;;;2.03;;
71108;SDS011;59614;51.012;-1.648;2022-07-23T13:50:38;4.65;;;2.08;;
71108;SDS011;59614;51.012;-1.648;2022-07-23T13:53:04;3.25;;;1.85;;
71108;SDS011;59614;51.012;-1.648;2022-07-23T13:55:33;6.13;;;1.85;;
71108;SDS011;59614;51.012;-1.648;2022-07-23T13:57:59;3.60;;;2.15;;
71108;SDS011;59614;51.012;-1.648;2022-07-23T14:00:25;6.40;;;2.35;;
71108;SDS011;59614;51.012;-1.648;2022-07-23T14:02:51;4.15;;;2.10;;
71108;SDS011;59614;51.012;-1.648;2022-07-23T14:05:17;3.58;;;1.95;;
71108;SDS011;59614;51.012;-1.648;2022-07-23T14:07:43;5.75;;;2.45;;
71108;SDS011;59614;51.012;-1.648;2022-07-23T14:10:09;4.05;;;2.10;;
71108;SDS011;59614;51.012;-1.648;2022-07-23T14:12:36;5.38;;;2.10;;
71108;SDS011;59614;51.012;-1.648;2022-07-23T14:15:02;5.93;;;2.28;;
71108;SDS011;59614;51.012;-1.648;2022-07-23T14:17:29;4.53;;;2.10;;
71108;SDS011;59614;51.012;-1.648;2022-07-23T14:19:56;6.90;;;2.20;;
71108;SDS011;59614;51.012;-1.648;2022-07-23T14:22:22;4.57;;;2.20;;
71108;SDS011;59614;51.012;-1.648;2022-07-23T14:24:47;3.40;;;2.03;;
71108;SDS011;59614;51.012;-1.648;2022-07-23T14:27:13;5.05;;;2.15;;
71108;SDS011;59614;51.012;-1.648;2022-07-23T14:29:38;6.05;;;2.38;;
71108;SDS011;59614;51.012;-1.648;2022-07-23T14:32:04;4.72;;;2.20;;
71108;SDS011;59614;51.012;-1.648;2022-07-23T14:34:30;6.30;;;2.30;;
71108;SDS011;59614;51.012;-1.648;2022-07-23T14:36:55;6.50;;;2.30;;
71108;SDS011;59614;51.012;-1.648;2022-07-23T14:39:22;3.73;;;2.20;;
71108;SDS011;59614;51.012;-1.648;2022-07-23T14:41:48;4.32;;;2.10;;
71108;SDS011;59614;51.012;-1.648;2022-07-23T14:44:13;6.30;;;2.30;;
71108;SDS011;59614;51.012;-1.648;2022-07-23T14:46:39;4.70;;;2.15;;
71108;SDS011;59614;51.012;-1.648;2022-07-23T14:49:04;6.00;;;2.20;;
71108;SDS011;59614;51.012;-1.648;2022-07-23T14:51:30;6.85;;;2.10;;
71108;SDS011;59614;51.012;-1.648;2022-07-23T14:53:56;4.82;;;1.95;;
71108;SDS011;59614;51.012;-1.648;2022-07-23T14:56:21;4.72;;;2.22;;
71108;SDS011;59614;51.012;-1.648;2022-07-23T14:58:47;6.05;;;2.20;;
71108;SDS011;59614;51.012;-1.648;2022-07-23T15:01:12;3.75;;;2.20;;
71108;SDS011;59614;51.012;-1.648;2022-07-23T15:03:38;4.07;;;2.10;;
71108;SDS011;59614;51.012;-1.648;2022-07-23T15:06:04;5.38;;;2.30;;
71108;SDS011;59614;51.012;-1.648;2022-07-23T15:08:29;5.50;;;2.47;;
71108;SDS011;59614;51.012;-1.648;2022-07-23T15:10:55;5.65;;;2.55;;
71108;SDS011;59614;51.012;-1.648;2022-07-23T15:13:20;5.88;;;2.35;;
71108;SDS011;59614;51.012;-1.648;2022-07-23T15:15:46;5.93;;;2.58;;
71108;SDS011;59614;51.012;-1.648;2022-07-23T15:18:11;8.10;;;2.45;;
71108;SDS011;59614;51.012;-1.648;2022-07-23T15:20:37;4.80;;;2.58;;
71108;SDS011;59614;51.012;-1.648;2022-07-23T15:23:03;6.30;;;2.47;;
71108;SDS011;59614;51.012;-1.648;2022-07-23T15:25:29;6.18;;;3.05;;
71108;SDS011;59614;51.012;-1.648;2022-07-23T15:27:54;5.53;;;2.70;;
71108;SDS011;59614;51.012;-1.648;2022-07-23T15:30:23;4.05;;;2.58;;